createdAt,value
2018-02-04T00:01:06.917Z,3.58
2018-02-04T00:03:34.505Z,3.65
2018-02-04T00:06:01.995Z,4.00
2018-02-04T00:08:29.519Z,3.92
2018-02-04T00:10:57.019Z,3.45
2018-02-04T00:13:24.837Z,5.20
2018-02-04T00:15:53.132Z,4.75
2018-02-04T00:18:20.649Z,3.95
2018-02-04T00:20:48.174Z,4.00
2018-02-04T00:23:16.043Z,3.70
2018-02-04T00:25:43.564Z,4.28
2018-02-04T00:28:11.899Z,4.00
2018-02-04T00:30:39.454Z,3.60
2018-02-04T00:33:06.996Z,3.83
2018-02-04T00:35:34.494Z,3.17
2018-02-04T00:38:02.084Z,4.12
2018-02-04T00:40:29.629Z,5.80
2018-02-04T00:42:57.471Z,4.68
2018-02-04T00:45:25.028Z,5.22
2018-02-04T00:47:52.962Z,3.60
2018-02-04T00:50:22.001Z,5.55
2018-02-04T00:52:49.526Z,4.37
2018-02-04T00:55:17.328Z,5.32
2018-02-04T00:57:45.717Z,5.00
2018-02-04T01:00:13.268Z,4.90
2018-02-04T01:02:41.602Z,3.40
2018-02-04T01:05:09.312Z,5.80
2018-02-04T01:07:37.607Z,4.80
2018-02-04T01:10:05.099Z,4.35
2018-02-04T01:12:32.618Z,4.53
2018-02-04T01:15:01.137Z,4.70
2018-02-04T01:17:29.345Z,4.03
2018-02-04T01:19:56.867Z,4.85
2018-02-04T01:22:24.398Z,3.10
2018-02-04T01:24:52.091Z,4.65
2018-02-04T01:27:20.496Z,5.00
2018-02-04T01:29:47.986Z,3.75
2018-02-04T01:32:15.531Z,5.82
2018-02-04T01:34:43.125Z,3.85
2018-02-04T01:37:11.535Z,4.12
2018-02-04T01:39:39.811Z,5.78
2018-02-04T01:42:07.378Z,3.20
2018-02-04T01:44:34.918Z,4.72
2018-02-04T01:47:02.422Z,4.25
2018-02-04T01:49:30.757Z,4.35
2018-02-04T01:51:58.477Z,5.20
2018-02-04T01:54:25.971Z,3.35
2018-02-04T01:56:53.478Z,3.25
2018-02-04T01:59:22.551Z,3.12
2018-02-04T02:01:50.065Z,3.37
2018-02-04T02:04:17.589Z,3.55
2018-02-04T02:06:45.132Z,3.28
2018-02-04T02:09:12.687Z,2.80
2018-02-04T02:11:40.373Z,3.37
2018-02-04T02:14:07.943Z,2.55
2018-02-04T02:16:35.448Z,2.42
2018-02-04T02:19:02.985Z,2.83
2018-02-04T02:21:30.526Z,2.80
2018-02-04T02:23:58.031Z,3.30
2018-02-04T02:26:26.297Z,2.70
2018-02-04T02:28:53.819Z,2.65
2018-02-04T02:31:21.423Z,3.05
2018-02-04T02:33:48.942Z,2.85
2018-02-04T02:36:17.236Z,2.00
2018-02-04T02:38:44.741Z,3.00
2018-02-04T02:41:13.041Z,1.95
2018-02-04T02:43:40.554Z,2.12
2018-02-04T02:46:08.086Z,2.50
2018-02-04T02:48:35.616Z,2.10
2018-02-04T02:51:03.903Z,2.55
2018-02-04T02:53:32.258Z,2.22
2018-02-04T02:55:59.808Z,3.08
2018-02-04T02:58:27.324Z,2.35
2018-02-04T03:00:55.014Z,2.40
2018-02-04T03:03:23.487Z,2.75
2018-02-04T03:05:51.030Z,2.15
2018-02-04T03:08:19.309Z,2.62
2018-02-04T03:10:47.606Z,1.92
2018-02-04T03:13:15.111Z,1.95
2018-02-04T03:15:42.736Z,2.08
2018-02-04T03:18:10.297Z,1.87
2018-02-04T03:20:37.822Z,2.30
2018-02-04T03:23:05.408Z,2.17
2018-02-04T03:25:33.678Z,2.40
2018-02-04T03:28:01.180Z,2.50
2018-02-04T03:30:28.707Z,2.25
2018-02-04T03:32:56.247Z,2.33
2018-02-04T03:35:23.744Z,2.28
2018-02-04T03:37:52.017Z,2.53
2018-02-04T03:40:20.284Z,2.60
2018-02-04T03:42:47.792Z,2.83
2018-02-04T03:45:15.319Z,2.78
2018-02-04T03:47:43.593Z,2.53
2018-02-04T03:50:11.105Z,2.22
2018-02-04T03:52:38.607Z,3.60
2018-02-04T03:55:07.630Z,2.70
2018-02-04T03:57:35.880Z,2.70
2018-02-04T04:00:03.414Z,3.05
2018-02-04T04:02:30.929Z,3.37
2018-02-04T04:04:59.215Z,2.90
2018-02-04T04:07:27.568Z,2.83
2018-02-04T04:09:55.069Z,3.22
2018-02-04T04:12:23.366Z,3.22
2018-02-04T04:14:50.844Z,2.55
2018-02-04T04:17:18.360Z,2.60
2018-02-04T04:19:45.858Z,2.78
2018-02-04T04:22:13.356Z,2.40
2018-02-04T04:24:40.957Z,3.55
2018-02-04T04:27:09.257Z,3.17
2018-02-04T04:29:37.540Z,2.78
2018-02-04T04:32:05.068Z,2.33
2018-02-04T04:34:32.572Z,3.55
2018-02-04T04:37:00.874Z,2.70
2018-02-04T04:39:28.405Z,2.80
2018-02-04T04:41:56.702Z,2.85
2018-02-04T04:44:24.242Z,3.47
2018-02-04T04:46:52.511Z,2.75
2018-02-04T04:49:20.015Z,4.05
2018-02-04T04:51:47.541Z,2.80
2018-02-04T04:54:15.065Z,3.15
2018-02-04T04:56:42.601Z,2.55
2018-02-04T04:59:10.115Z,3.17
2018-02-04T05:01:37.652Z,3.87
2018-02-04T05:04:05.167Z,3.20
2018-02-04T05:06:33.457Z,3.50
2018-02-04T05:09:01.839Z,3.40
2018-02-04T05:11:30.147Z,3.10
2018-02-04T05:13:57.663Z,3.10
2018-02-04T05:16:25.236Z,2.65
2018-02-04T05:18:52.783Z,2.92
2018-02-04T05:21:20.341Z,2.85
2018-02-04T05:23:47.836Z,2.85
2018-02-04T05:26:16.225Z,3.10
2018-02-04T05:28:44.520Z,2.75
2018-02-04T05:31:12.080Z,3.20
2018-02-04T05:33:39.603Z,2.60
2018-02-04T05:36:07.876Z,2.65
2018-02-04T05:38:35.402Z,2.60
2018-02-04T05:41:02.947Z,3.50
2018-02-04T05:43:30.461Z,2.45
2018-02-04T05:45:57.983Z,3.58
2018-02-04T05:48:25.506Z,3.30
2018-02-04T05:50:53.037Z,3.67
2018-02-04T05:53:20.560Z,3.20
2018-02-04T05:55:48.833Z,3.37
2018-02-04T05:58:17.149Z,3.10
2018-02-04T06:00:44.670Z,3.90
2018-02-04T06:03:12.949Z,3.10
2018-02-04T06:05:41.229Z,3.53
2018-02-04T06:08:08.772Z,5.03
2018-02-04T06:10:36.295Z,3.33
2018-02-04T06:13:03.871Z,3.62
2018-02-04T06:15:31.385Z,3.17
2018-02-04T06:17:58.911Z,3.40
2018-02-04T06:20:26.413Z,4.40
2018-02-04T06:22:54.709Z,4.30
2018-02-04T06:25:23.014Z,4.03
2018-02-04T06:27:50.546Z,3.40
2018-02-04T06:30:18.833Z,3.55
2018-02-04T06:32:47.139Z,3.53
2018-02-04T06:35:14.681Z,3.90
2018-02-04T06:37:42.970Z,3.60
2018-02-04T06:40:10.494Z,4.28
2018-02-04T06:42:38.022Z,3.60
2018-02-04T06:45:05.513Z,3.87
2018-02-04T06:47:33.058Z,3.30
2018-02-04T06:50:00.570Z,3.90
2018-02-04T06:52:28.864Z,4.12
2018-02-04T06:54:56.413Z,3.83
2018-02-04T06:57:24.701Z,4.05
2018-02-04T06:59:52.988Z,3.90
2018-02-04T07:02:21.272Z,3.08
2018-02-04T07:04:48.787Z,3.50
2018-02-04T07:07:16.325Z,4.12
2018-02-04T07:09:43.875Z,4.03
2018-02-04T07:12:11.539Z,3.20
2018-02-04T07:14:39.063Z,3.83
2018-02-04T07:17:06.581Z,4.22
2018-02-04T07:19:34.119Z,3.67
2018-02-04T07:22:02.430Z,3.80
2018-02-04T07:24:29.970Z,3.60
2018-02-04T07:26:57.498Z,4.10
2018-02-04T07:29:25.059Z,3.40
2018-02-04T07:31:52.618Z,4.18
2018-02-04T07:34:20.139Z,4.20
2018-02-04T07:36:47.688Z,3.85
2018-02-04T07:39:15.223Z,4.25
2018-02-04T07:41:42.750Z,4.18
2018-02-04T07:44:10.272Z,3.80
2018-02-04T07:46:38.559Z,3.67
2018-02-04T07:49:06.115Z,4.65
2018-02-04T07:51:34.424Z,4.22
2018-02-04T07:54:01.916Z,4.18
2018-02-04T07:56:29.455Z,5.15
2018-02-04T07:58:56.966Z,5.65
2018-02-04T08:01:24.492Z,5.28
2018-02-04T08:03:52.014Z,5.20
2018-02-04T08:06:20.340Z,4.70
2018-02-04T08:08:47.849Z,4.82
2018-02-04T08:11:16.162Z,6.87
2018-02-04T08:13:43.730Z,4.72
2018-02-04T08:16:11.318Z,4.75
2018-02-04T08:18:38.890Z,4.95
2018-02-04T08:21:06.501Z,6.00
2018-02-04T08:23:34.775Z,5.25
2018-02-04T08:26:03.050Z,5.32
2018-02-04T08:28:31.328Z,6.05
2018-02-04T08:30:58.846Z,5.82
2018-02-04T08:33:26.349Z,6.50
2018-02-04T08:35:54.670Z,5.68
2018-02-04T08:38:22.206Z,6.65
2018-02-04T08:40:49.754Z,8.27
2018-02-04T08:43:18.151Z,6.32
2018-02-04T08:45:46.434Z,6.97
2018-02-04T08:48:14.722Z,6.40
2018-02-04T08:50:43.047Z,7.10
2018-02-04T08:53:10.584Z,7.12
2018-02-04T08:55:38.133Z,8.52
2018-02-04T08:58:06.419Z,6.80
2018-02-04T09:00:33.985Z,8.38
2018-02-04T09:03:01.815Z,8.77
2018-02-04T09:05:29.357Z,7.40
2018-02-04T09:07:56.885Z,9.60
2018-02-04T09:10:24.426Z,7.50
2018-02-04T09:12:52.752Z,8.18
2018-02-04T09:15:20.309Z,9.70
2018-02-04T09:17:47.830Z,9.98
2018-02-04T09:20:16.644Z,8.35
2018-02-04T09:22:44.986Z,9.65
2018-02-04T09:25:13.291Z,9.38
2018-02-04T09:27:40.867Z,8.45
2018-02-04T09:30:09.152Z,8.90
2018-02-04T09:32:37.449Z,9.13
2018-02-04T09:35:04.959Z,8.88
2018-02-04T09:37:32.516Z,8.80
2018-02-04T09:40:00.025Z,8.05
2018-02-04T09:42:27.565Z,9.88
2018-02-04T09:44:55.208Z,7.82
2018-02-04T09:47:22.743Z,8.30
2018-02-04T09:49:50.315Z,7.25
2018-02-04T09:52:18.647Z,7.12
2018-02-04T09:54:46.180Z,7.45
2018-02-04T09:57:13.742Z,7.12
2018-02-04T09:59:41.336Z,6.07
2018-02-04T10:02:09.694Z,5.53
2018-02-04T10:04:37.224Z,6.43
2018-02-04T10:07:04.738Z,6.00
2018-02-04T10:09:32.319Z,6.45
2018-02-04T10:12:00.695Z,5.57
2018-02-04T10:14:29.003Z,5.32
2018-02-04T10:16:56.537Z,5.10
2018-02-04T10:19:24.092Z,6.15
2018-02-04T10:21:51.627Z,4.68
2018-02-04T10:24:19.178Z,4.35
2018-02-04T10:26:46.705Z,5.00
2018-02-04T10:29:15.219Z,5.03
2018-02-04T10:31:42.774Z,4.85
2018-02-04T10:34:10.356Z,3.92
2018-02-04T10:36:37.906Z,4.15
2018-02-04T10:39:05.435Z,3.25
2018-02-04T10:41:33.021Z,3.50
2018-02-04T10:44:01.318Z,3.70
2018-02-04T10:46:29.077Z,3.33
2018-02-04T10:48:56.706Z,3.40
2018-02-04T10:51:29.834Z,3.45
2018-02-04T10:53:57.374Z,3.40
2018-02-04T10:56:25.662Z,3.40
2018-02-04T10:58:53.960Z,3.00
2018-02-04T11:01:21.478Z,3.17
2018-02-04T11:03:49.068Z,3.08
2018-02-04T11:06:17.354Z,3.78
2018-02-04T11:08:45.685Z,3.67
2018-02-04T11:11:13.216Z,3.00
2018-02-04T11:13:40.841Z,3.30
2018-02-04T11:16:08.441Z,3.55
2018-02-04T11:18:36.243Z,4.03
2018-02-04T11:21:03.808Z,3.55
2018-02-04T11:23:31.306Z,3.60
2018-02-04T11:25:59.642Z,2.97
2018-02-04T11:28:27.158Z,3.75
2018-02-04T11:30:54.742Z,3.83
2018-02-04T11:33:22.341Z,3.33
2018-02-04T11:35:49.857Z,3.10
2018-02-04T11:38:17.429Z,3.85
2018-02-04T11:40:45.799Z,3.70
2018-02-04T11:43:13.353Z,3.30
2018-02-04T11:45:40.935Z,4.18
2018-02-04T11:48:09.250Z,3.40
2018-02-04T11:50:36.802Z,3.28
2018-02-04T11:53:04.324Z,4.78
2018-02-04T11:55:31.879Z,5.00
2018-02-04T11:57:59.410Z,3.47
2018-02-04T12:00:26.992Z,5.35
2018-02-04T12:02:54.643Z,3.87
2018-02-04T12:05:22.310Z,3.92
2018-02-04T12:07:49.850Z,3.17
2018-02-04T12:10:18.256Z,3.60
2018-02-04T12:12:45.805Z,3.45
2018-02-04T12:15:13.388Z,3.03
2018-02-04T12:17:40.968Z,4.15
2018-02-04T12:20:08.561Z,3.33
2018-02-04T12:22:36.118Z,3.00
2018-02-04T12:25:03.682Z,2.80
2018-02-04T12:27:31.246Z,3.20
2018-02-04T12:29:58.834Z,2.70
2018-02-04T12:32:26.355Z,2.50
2018-02-04T12:34:53.887Z,3.40
2018-02-04T12:37:21.447Z,4.90
2018-02-04T12:39:49.786Z,4.03
2018-02-04T12:42:17.398Z,3.53
2018-02-04T12:44:44.949Z,3.20
2018-02-04T12:47:13.276Z,3.70
2018-02-04T12:49:40.820Z,2.90
2018-02-04T12:52:08.365Z,3.33
2018-02-04T12:54:36.681Z,4.23
2018-02-04T12:57:04.232Z,4.10
2018-02-04T12:59:31.753Z,4.00
2018-02-04T13:01:59.491Z,3.10
2018-02-04T13:04:27.042Z,4.03
2018-02-04T13:06:54.569Z,3.80
2018-02-04T13:09:22.880Z,4.10
2018-02-04T13:11:50.434Z,3.30
2018-02-04T13:14:17.964Z,3.63
2018-02-04T13:16:45.524Z,3.40
2018-02-04T13:19:13.125Z,2.53
2018-02-04T13:21:40.714Z,3.13
2018-02-04T13:24:08.278Z,3.07
2018-02-04T13:26:35.870Z,3.20
2018-02-04T13:29:03.397Z,2.97
2018-02-04T13:31:30.928Z,2.80
2018-02-04T13:33:59.249Z,3.00
2018-02-04T13:36:26.779Z,4.87
2018-02-04T13:38:54.303Z,3.40
2018-02-04T13:41:22.490Z,2.23
2018-02-04T13:43:52.503Z,2.85
2018-02-04T13:46:20.075Z,3.10
2018-02-04T13:48:47.684Z,2.87
2018-02-04T13:51:15.227Z,3.65
2018-02-04T13:53:42.821Z,3.17
2018-02-04T13:56:10.337Z,4.05
2018-02-04T13:58:37.862Z,3.55
2018-02-04T14:01:05.433Z,3.12
2018-02-04T14:03:33.041Z,3.30
2018-02-04T14:06:01.329Z,3.42
2018-02-04T14:08:29.622Z,3.50
2018-02-04T14:10:57.167Z,4.50
2018-02-04T14:13:25.465Z,3.50
2018-02-04T14:15:53.777Z,3.10
2018-02-04T14:18:21.307Z,3.42
2018-02-04T14:20:49.599Z,3.30
2018-02-04T14:23:17.271Z,3.65
2018-02-04T14:25:44.899Z,3.78
2018-02-04T14:28:12.430Z,4.28
2018-02-04T14:30:39.955Z,3.60
2018-02-04T14:33:07.459Z,3.22
2018-02-04T14:35:35.076Z,3.78
2018-02-04T14:38:02.657Z,3.53
2018-02-04T14:40:30.147Z,3.20
2018-02-04T14:42:57.673Z,3.37
2018-02-04T14:45:25.988Z,4.40
2018-02-04T14:47:53.544Z,4.40
2018-02-04T14:50:21.042Z,3.60
2018-02-04T14:52:48.622Z,4.47
2018-02-04T14:55:16.129Z,3.65
2018-02-04T14:57:43.673Z,3.60
2018-02-04T15:00:12.160Z,4.45
2018-02-04T15:02:39.657Z,4.40
2018-02-04T15:05:07.147Z,4.10
2018-02-04T15:07:34.644Z,4.10
2018-02-04T15:10:02.156Z,4.37
2018-02-04T15:12:29.642Z,4.68
2018-02-04T15:14:57.921Z,4.70
2018-02-04T15:17:25.459Z,5.15
2018-02-04T15:19:52.981Z,5.28
2018-02-04T15:22:21.249Z,5.20
2018-02-04T15:24:49.520Z,5.03
2018-02-04T15:27:17.796Z,4.30
2018-02-04T15:29:46.078Z,5.43
2018-02-04T15:32:13.560Z,4.03
2018-02-04T15:34:41.096Z,4.75
2018-02-04T15:37:08.871Z,4.75
2018-02-04T15:39:36.423Z,5.68
2018-02-04T15:42:03.948Z,5.68
2018-02-04T15:44:31.468Z,4.47
2018-02-04T15:47:00.571Z,5.15
2018-02-04T15:49:28.149Z,8.27
2018-02-04T15:51:56.435Z,6.12
2018-02-04T15:54:24.070Z,5.97
2018-02-04T15:56:51.583Z,6.93
2018-02-04T15:59:19.210Z,5.75
2018-02-04T16:01:46.789Z,6.10
2018-02-04T16:04:15.097Z,6.00
2018-02-04T16:06:42.655Z,5.20
2018-02-04T16:09:10.216Z,6.05
2018-02-04T16:11:37.719Z,5.72
2018-02-04T16:14:05.280Z,5.45
2018-02-04T16:16:32.768Z,7.45
2018-02-04T16:19:01.082Z,6.43
2018-02-04T16:21:28.562Z,6.20
2018-02-04T16:23:56.173Z,6.32
2018-02-04T16:26:23.680Z,6.80
2018-02-04T16:28:51.292Z,7.45
2018-02-04T16:31:18.787Z,7.40
2018-02-04T16:33:47.156Z,8.52
2018-02-04T16:36:14.660Z,7.93
2018-02-04T16:38:42.276Z,8.10
2018-02-04T16:41:11.164Z,12.10
2018-02-04T16:43:38.968Z,49.78
2018-02-04T16:46:07.314Z,9.07
2018-02-04T16:48:34.835Z,8.90
2018-02-04T16:51:02.367Z,8.95
2018-02-04T16:53:30.621Z,9.55
2018-02-04T16:55:58.365Z,9.85
2018-02-04T16:58:25.853Z,9.70
2018-02-04T17:00:54.165Z,9.00
2018-02-04T17:03:22.443Z,10.40
2018-02-04T17:05:50.751Z,9.68
2018-02-04T17:08:18.275Z,11.20
2018-02-04T17:10:45.765Z,10.30
2018-02-04T17:13:14.024Z,10.65
2018-02-04T17:15:42.299Z,11.12
2018-02-04T17:18:09.814Z,10.57
2018-02-04T17:20:37.334Z,11.10
2018-02-04T17:23:04.822Z,10.70
2018-02-04T17:25:32.593Z,10.13
2018-02-04T17:28:00.116Z,10.75
2018-02-04T17:30:27.676Z,9.82
2018-02-04T17:32:55.976Z,9.48
2018-02-04T17:35:24.252Z,9.68
2018-02-04T17:37:51.748Z,10.90
2018-02-04T17:40:19.280Z,10.05
2018-02-04T17:42:46.784Z,10.10
2018-02-04T17:45:14.292Z,9.60
2018-02-04T17:47:41.788Z,9.00
2018-02-04T17:50:10.196Z,9.73
2018-02-04T17:52:37.682Z,9.32
2018-02-04T17:55:05.216Z,10.80
2018-02-04T17:57:32.773Z,10.52
2018-02-04T18:00:00.476Z,9.82
2018-02-04T18:02:27.998Z,11.27
2018-02-04T18:04:56.271Z,10.50
2018-02-04T18:07:24.525Z,10.93
2018-02-04T18:09:52.144Z,11.85
2018-02-04T18:12:19.700Z,10.88
2018-02-04T18:14:47.231Z,12.82
2018-02-04T18:17:15.535Z,11.27
2018-02-04T18:19:43.069Z,12.27
2018-02-04T18:22:10.576Z,12.23
2018-02-04T18:24:38.166Z,10.57
2018-02-04T18:27:05.771Z,13.40
2018-02-04T18:29:34.077Z,11.82
2018-02-04T18:32:01.678Z,13.73
2018-02-04T18:34:29.362Z,11.63
2018-02-04T18:36:56.932Z,12.52
2018-02-04T18:39:24.428Z,14.05
2018-02-04T18:41:52.730Z,13.27
2018-02-04T18:44:20.285Z,13.48
2018-02-04T18:46:47.817Z,13.93
2018-02-04T18:49:16.225Z,15.10
2018-02-04T18:51:43.741Z,13.95
2018-02-04T18:54:11.592Z,14.87
2018-02-04T18:56:39.115Z,13.68
2018-02-04T18:59:07.389Z,14.23
2018-02-04T19:01:35.712Z,15.50
2018-02-04T19:04:03.994Z,17.00
2018-02-04T19:06:31.862Z,16.20
2018-02-04T19:08:59.367Z,15.80
2018-02-04T19:11:26.888Z,14.40
2018-02-04T19:13:54.411Z,15.18
2018-02-04T19:16:22.756Z,16.40
2018-02-04T19:18:50.246Z,15.38
2018-02-04T19:21:17.771Z,16.48
2018-02-04T19:23:45.293Z,17.77
2018-02-04T19:26:13.610Z,17.15
2018-02-04T19:28:41.171Z,15.45
2018-02-04T19:31:09.059Z,16.52
2018-02-04T19:33:36.620Z,15.20
2018-02-04T19:36:04.144Z,17.00
2018-02-04T19:38:31.732Z,18.60
2018-02-04T19:40:59.373Z,15.65
2018-02-04T19:43:27.683Z,17.37
2018-02-04T19:45:55.199Z,16.60
2018-02-04T19:48:23.486Z,16.90
2018-02-04T19:50:51.752Z,18.73
2018-02-04T19:53:20.046Z,16.60
2018-02-04T19:55:48.302Z,16.73
2018-02-04T19:58:15.862Z,16.27
2018-02-04T20:00:43.436Z,15.85
2018-02-04T20:03:11.721Z,18.60
2018-02-04T20:05:39.243Z,17.48
2018-02-04T20:08:08.840Z,18.02
2018-02-04T20:10:36.357Z,15.95
2018-02-04T20:13:03.951Z,16.77
2018-02-04T20:15:31.536Z,16.92
2018-02-04T20:17:59.357Z,17.90
2018-02-04T20:20:26.937Z,17.40
2018-02-04T20:22:55.296Z,17.12
2018-02-04T20:25:22.793Z,15.82
2018-02-04T20:27:51.055Z,17.42
2018-02-04T20:30:18.592Z,16.23
2018-02-04T20:32:58.121Z,16.25
2018-02-04T20:35:25.643Z,17.48
2018-02-04T20:37:53.920Z,18.17
2018-02-04T20:40:22.188Z,16.05
2018-02-04T20:42:50.479Z,15.82
2018-02-04T20:45:18.749Z,14.82
2018-02-04T20:47:46.275Z,16.95
2018-02-04T20:50:13.798Z,16.45
2018-02-04T20:52:41.322Z,18.55
2018-02-04T20:55:08.829Z,15.20
2018-02-04T20:57:36.340Z,17.37
2018-02-04T21:00:03.869Z,18.60
2018-02-04T21:02:32.488Z,17.23
2018-02-04T21:04:59.977Z,17.92
2018-02-04T21:07:27.511Z,17.20
2018-02-04T21:09:55.064Z,16.50
2018-02-04T21:12:22.549Z,15.52
2018-02-04T21:14:50.144Z,18.35
2018-02-04T21:17:18.595Z,16.87
2018-02-04T21:19:46.114Z,16.33
2018-02-04T21:22:13.632Z,17.15
2018-02-04T21:24:42.012Z,18.60
2018-02-04T21:27:09.507Z,18.08
2018-02-04T21:29:37.820Z,18.17
2018-02-04T21:32:05.335Z,18.75
2018-02-04T21:34:33.619Z,18.40
2018-02-04T21:37:01.901Z,16.15
2018-02-04T21:39:30.315Z,17.02
2018-02-04T21:41:57.870Z,17.90
2018-02-04T21:44:25.394Z,18.23
2018-02-04T21:46:52.923Z,16.48
2018-02-04T21:49:20.412Z,16.35
2018-02-04T21:51:48.011Z,15.77
2018-02-04T21:54:16.274Z,18.12
2018-02-04T21:56:43.938Z,18.15
2018-02-04T21:59:11.547Z,16.33
2018-02-04T22:01:39.068Z,16.02
2018-02-04T22:04:06.603Z,19.35
2018-02-04T22:06:34.145Z,18.30
2018-02-04T22:09:01.669Z,18.45
2018-02-04T22:11:29.950Z,17.12
2018-02-04T22:13:58.084Z,17.90
2018-02-04T22:16:25.563Z,17.15
2018-02-04T22:18:53.056Z,16.00
2018-02-04T22:21:21.310Z,16.25
2018-02-04T22:23:48.829Z,17.73
2018-02-04T22:26:16.337Z,16.65
2018-02-04T22:28:43.838Z,17.75
2018-02-04T22:31:12.211Z,16.50
2018-02-04T22:33:40.522Z,18.23
2018-02-04T22:36:08.028Z,19.67
2018-02-04T22:38:35.497Z,18.20
2018-02-04T22:41:03.006Z,17.02
2018-02-04T22:43:30.528Z,18.90
2018-02-04T22:45:59.107Z,19.33
2018-02-04T22:48:26.634Z,22.23
2018-02-04T22:50:54.231Z,18.45
2018-02-04T22:53:21.760Z,17.92
2018-02-04T22:55:49.729Z,22.70
2018-02-04T22:58:17.262Z,20.30
2018-02-04T23:00:45.715Z,21.27
2018-02-04T23:03:13.232Z,19.73
2018-02-04T23:05:40.796Z,18.20
2018-02-04T23:08:08.309Z,17.70
2018-02-04T23:10:35.838Z,18.45
2018-02-04T23:13:03.380Z,19.05
2018-02-04T23:15:31.025Z,17.83
2018-02-04T23:17:59.337Z,19.10
2018-02-04T23:20:26.896Z,19.58
2018-02-04T23:22:54.421Z,19.45
2018-02-04T23:25:22.734Z,19.52
2018-02-04T23:27:51.078Z,21.12
2018-02-04T23:30:18.682Z,19.75
2018-02-04T23:32:46.191Z,19.80
2018-02-04T23:35:13.693Z,20.27
2018-02-04T23:37:41.250Z,20.83
2018-02-04T23:40:08.768Z,19.05
2018-02-04T23:42:36.609Z,20.85
2018-02-04T23:45:04.880Z,21.50
2018-02-04T23:47:33.164Z,21.30
2018-02-04T23:50:01.443Z,19.15
2018-02-04T23:52:29.718Z,20.70
2018-02-04T23:54:57.993Z,20.25
2018-02-04T23:57:25.495Z,21.15
2018-02-04T23:59:52.996Z,20.95
